sensor_id;sensor_type;location;lat;lon;timestamp;P1;durP1;ratioP1;P2;durP2;ratioP2
47531;SDS011;33273;52.254;7.988;2023-04-25T00:00:47;10.50;;;4.77;;
47531;SDS011;33273;52.254;7.988;2023-04-25T00:03:13;14.43;;;4.53;;
47531;SDS011;33273;52.254;7.988;2023-04-25T00:05:40;6.95;;;4.10;;
47531;SDS011;33273;52.254;7.988;2023-04-25T00:08:05;10.83;;;4.10;;
47531;SDS011;33273;52.254;7.988;2023-04-25T00:10:32;13.63;;;5.68;;
47531;SDS011;33273;52.254;7.988;2023-04-25T00:12:58;9.77;;;4.53;;
47531;SDS011;33273;52.254;7.988;2023-04-25T00:15:24;10.30;;;5.00;;
47531;SDS011;33273;52.254;7.988;2023-04-25T00:17:50;15.52;;;4.80;;
47531;SDS011;33273;52.254;7.988;2023-04-25T00:20:18;10.65;;;3.83;;
47531;SDS011;33273;52.254;7.988;2023-04-25T00:22:43;12.32;;;4.43;;
47531;SDS011;33273;52.254;7.988;2023-04-25T00:25:12;9.25;;;4.40;;
47531;SDS011;33273;52.254;7.988;2023-04-25T00:27:38;9.67;;;3.67;;
47531;SDS011;33273;52.254;7.988;2023-04-25T00:30:05;9.00;;;4.30;;
47531;SDS011;33273;52.254;7.988;2023-04-25T00:32:32;8.00;;;3.88;;
47531;SDS011;33273;52.254;7.988;2023-04-25T00:34:58;11.25;;;4.05;;
47531;SDS011;33273;52.254;7.988;2023-04-25T00:37:25;7.90;;;4.00;;
47531;SDS011;33273;52.254;7.988;2023-04-25T00:39:52;8.60;;;4.50;;
47531;SDS011;33273;52.254;7.988;2023-04-25T00:42:21;8.90;;;3.80;;
47531;SDS011;33273;52.254;7.988;2023-04-25T00:44:47;8.55;;;3.63;;
47531;SDS011;33273;52.254;7.988;2023-04-25T00:47:13;10.32;;;4.25;;
47531;SDS011;33273;52.254;7.988;2023-04-25T00:49:41;8.40;;;3.80;;
47531;SDS011;33273;52.254;7.988;2023-04-25T00:52:07;12.97;;;5.07;;
47531;SDS011;33273;52.254;7.988;2023-04-25T00:54:32;9.63;;;5.23;;
47531;SDS011;33273;52.254;7.988;2023-04-25T00:56:58;11.68;;;4.13;;
47531;SDS011;33273;52.254;7.988;2023-04-25T00:59:26;11.30;;;4.13;;
47531;SDS011;33273;52.254;7.988;2023-04-25T01:01:53;16.80;;;5.07;;
47531;SDS011;33273;52.254;7.988;2023-04-25T01:04:20;13.98;;;4.80;;
47531;SDS011;33273;52.254;7.988;2023-04-25T01:06:47;19.30;;;4.97;;
47531;SDS011;33273;52.254;7.988;2023-04-25T01:09:14;12.60;;;4.90;;
47531;SDS011;33273;52.254;7.988;2023-04-25T01:11:40;10.98;;;4.53;;
47531;SDS011;33273;52.254;7.988;2023-04-25T01:14:06;17.03;;;4.80;;
47531;SDS011;33273;52.254;7.988;2023-04-25T01:16:32;13.45;;;5.05;;
47531;SDS011;33273;52.254;7.988;2023-04-25T01:18:58;13.18;;;4.40;;
47531;SDS011;33273;52.254;7.988;2023-04-25T01:21:24;12.30;;;4.30;;
47531;SDS011;33273;52.254;7.988;2023-04-25T01:23:53;15.48;;;4.63;;
47531;SDS011;33273;52.254;7.988;2023-04-25T01:26:20;12.50;;;4.93;;
47531;SDS011;33273;52.254;7.988;2023-04-25T01:28:47;10.35;;;4.45;;
47531;SDS011;33273;52.254;7.988;2023-04-25T01:31:16;16.25;;;6.65;;
47531;SDS011;33273;52.254;7.988;2023-04-25T01:33:43;21.42;;;4.93;;
47531;SDS011;33273;52.254;7.988;2023-04-25T01:36:10;26.67;;;5.25;;
47531;SDS011;33273;52.254;7.988;2023-04-25T01:41:03;16.58;;;4.68;;
47531;SDS011;33273;52.254;7.988;2023-04-25T01:43:30;12.98;;;4.70;;
47531;SDS011;33273;52.254;7.988;2023-04-25T01:45:56;16.38;;;5.00;;
47531;SDS011;33273;52.254;7.988;2023-04-25T01:48:24;13.85;;;6.45;;
47531;SDS011;33273;52.254;7.988;2023-04-25T01:50:50;20.87;;;5.83;;
47531;SDS011;33273;52.254;7.988;2023-04-25T01:53:16;14.38;;;4.07;;
47531;SDS011;33273;52.254;7.988;2023-04-25T01:55:44;12.95;;;4.70;;
47531;SDS011;33273;52.254;7.988;2023-04-25T01:58:13;12.48;;;4.55;;
47531;SDS011;33273;52.254;7.988;2023-04-25T02:00:59;17.17;;;4.85;;
47531;SDS011;33273;52.254;7.988;2023-04-25T02:03:31;21.17;;;5.60;;
47531;SDS011;33273;52.254;7.988;2023-04-25T02:05:58;15.75;;;5.25;;
47531;SDS011;33273;52.254;7.988;2023-04-25T02:08:24;16.73;;;5.35;;
47531;SDS011;33273;52.254;7.988;2023-04-25T02:10:53;15.40;;;4.63;;
47531;SDS011;33273;52.254;7.988;2023-04-25T02:13:19;17.83;;;5.47;;
47531;SDS011;33273;52.254;7.988;2023-04-25T02:15:57;16.98;;;4.80;;
47531;SDS011;33273;52.254;7.988;2023-04-25T02:18:23;13.75;;;4.50;;
47531;SDS011;33273;52.254;7.988;2023-04-25T02:20:49;13.10;;;4.90;;
47531;SDS011;33273;52.254;7.988;2023-04-25T02:23:15;18.53;;;4.63;;
47531;SDS011;33273;52.254;7.988;2023-04-25T02:25:41;19.00;;;4.93;;
47531;SDS011;33273;52.254;7.988;2023-04-25T02:28:08;15.90;;;4.28;;
47531;SDS011;33273;52.254;7.988;2023-04-25T02:30:35;16.38;;;4.15;;
47531;SDS011;33273;52.254;7.988;2023-04-25T02:33:03;12.35;;;4.18;;
47531;SDS011;33273;52.254;7.988;2023-04-25T02:35:30;29.27;;;4.60;;
47531;SDS011;33273;52.254;7.988;2023-04-25T02:37:56;12.67;;;3.67;;
47531;SDS011;33273;52.254;7.988;2023-04-25T02:40:22;17.30;;;4.03;;
47531;SDS011;33273;52.254;7.988;2023-04-25T02:42:49;16.20;;;4.60;;
47531;SDS011;33273;52.254;7.988;2023-04-25T02:45:15;18.97;;;4.83;;
47531;SDS011;33273;52.254;7.988;2023-04-25T02:47:41;18.87;;;4.23;;
47531;SDS011;33273;52.254;7.988;2023-04-25T02:50:07;13.03;;;4.77;;
47531;SDS011;33273;52.254;7.988;2023-04-25T02:52:33;14.98;;;5.05;;
47531;SDS011;33273;52.254;7.988;2023-04-25T02:55:11;10.98;;;4.88;;
47531;SDS011;33273;52.254;7.988;2023-04-25T02:57:39;13.38;;;4.45;;
47531;SDS011;33273;52.254;7.988;2023-04-25T03:00:05;19.63;;;4.45;;
47531;SDS011;33273;52.254;7.988;2023-04-25T03:02:32;14.90;;;4.57;;
47531;SDS011;33273;52.254;7.988;2023-04-25T03:04:58;17.10;;;5.40;;
47531;SDS011;33273;52.254;7.988;2023-04-25T03:07:24;18.27;;;4.97;;
47531;SDS011;33273;52.254;7.988;2023-04-25T03:09:50;15.13;;;5.10;;
47531;SDS011;33273;52.254;7.988;2023-04-25T03:12:16;16.93;;;5.50;;
47531;SDS011;33273;52.254;7.988;2023-04-25T03:17:09;17.77;;;4.47;;
47531;SDS011;33273;52.254;7.988;2023-04-25T03:19:36;12.32;;;4.57;;
47531;SDS011;33273;52.254;7.988;2023-04-25T03:22:01;11.87;;;4.67;;
47531;SDS011;33273;52.254;7.988;2023-04-25T03:24:29;12.15;;;4.38;;
47531;SDS011;33273;52.254;7.988;2023-04-25T03:26:58;21.52;;;4.43;;
47531;SDS011;33273;52.254;7.988;2023-04-25T03:29:25;15.20;;;5.03;;
47531;SDS011;33273;52.254;7.988;2023-04-25T03:31:54;13.52;;;4.32;;
47531;SDS011;33273;52.254;7.988;2023-04-25T03:34:21;16.40;;;5.13;;
47531;SDS011;33273;52.254;7.988;2023-04-25T03:36:47;16.10;;;4.85;;
47531;SDS011;33273;52.254;7.988;2023-04-25T03:39:16;17.63;;;5.35;;
47531;SDS011;33273;52.254;7.988;2023-04-25T03:41:47;17.52;;;4.60;;
47531;SDS011;33273;52.254;7.988;2023-04-25T03:44:14;18.08;;;5.10;;
47531;SDS011;33273;52.254;7.988;2023-04-25T03:46:40;13.40;;;5.00;;
47531;SDS011;33273;52.254;7.988;2023-04-25T03:49:06;24.15;;;5.53;;
47531;SDS011;33273;52.254;7.988;2023-04-25T03:51:51;17.13;;;5.68;;
47531;SDS011;33273;52.254;7.988;2023-04-25T03:54:19;11.48;;;5.00;;
47531;SDS011;33273;52.254;7.988;2023-04-25T03:56:54;15.63;;;5.28;;
47531;SDS011;33273;52.254;7.988;2023-04-25T03:59:25;12.38;;;5.15;;
47531;SDS011;33273;52.254;7.988;2023-04-25T04:01:51;18.10;;;5.30;;
47531;SDS011;33273;52.254;7.988;2023-04-25T04:04:17;14.55;;;5.53;;
47531;SDS011;33273;52.254;7.988;2023-04-25T04:06:44;17.75;;;4.60;;
47531;SDS011;33273;52.254;7.988;2023-04-25T04:09:15;26.10;;;5.47;;
47531;SDS011;33273;52.254;7.988;2023-04-25T04:11:43;17.15;;;4.70;;
47531;SDS011;33273;52.254;7.988;2023-04-25T04:14:09;13.25;;;5.18;;
47531;SDS011;33273;52.254;7.988;2023-04-25T04:16:38;14.23;;;5.03;;
47531;SDS011;33273;52.254;7.988;2023-04-25T04:19:04;13.23;;;4.43;;
47531;SDS011;33273;52.254;7.988;2023-04-25T04:21:32;19.98;;;5.30;;
47531;SDS011;33273;52.254;7.988;2023-04-25T04:26:28;9.73;;;4.63;;
47531;SDS011;33273;52.254;7.988;2023-04-25T04:29:16;15.77;;;4.70;;
47531;SDS011;33273;52.254;7.988;2023-04-25T04:31:57;13.40;;;4.60;;
47531;SDS011;33273;52.254;7.988;2023-04-25T04:34:23;14.57;;;4.53;;
47531;SDS011;33273;52.254;7.988;2023-04-25T04:36:51;16.42;;;4.80;;
47531;SDS011;33273;52.254;7.988;2023-04-25T04:39:18;16.23;;;5.68;;
47531;SDS011;33273;52.254;7.988;2023-04-25T04:42:16;15.00;;;5.35;;
47531;SDS011;33273;52.254;7.988;2023-04-25T04:45:01;16.08;;;5.07;;
47531;SDS011;33273;52.254;7.988;2023-04-25T04:47:58;12.50;;;4.47;;
47531;SDS011;33273;52.254;7.988;2023-04-25T04:50:53;18.08;;;4.70;;
47531;SDS011;33273;52.254;7.988;2023-04-25T04:53:43;23.38;;;5.28;;
47531;SDS011;33273;52.254;7.988;2023-04-25T04:56:17;13.35;;;4.53;;
47531;SDS011;33273;52.254;7.988;2023-04-25T04:59:15;14.03;;;6.83;;
47531;SDS011;33273;52.254;7.988;2023-04-25T05:02:06;10.95;;;4.53;;
47531;SDS011;33273;52.254;7.988;2023-04-25T05:04:49;12.18;;;4.07;;
47531;SDS011;33273;52.254;7.988;2023-04-25T05:07:36;11.15;;;4.40;;
47531;SDS011;33273;52.254;7.988;2023-04-25T05:10:29;18.45;;;4.68;;
47531;SDS011;33273;52.254;7.988;2023-04-25T05:13:18;12.93;;;5.20;;
47531;SDS011;33273;52.254;7.988;2023-04-25T05:16:03;13.82;;;4.43;;
47531;SDS011;33273;52.254;7.988;2023-04-25T05:18:49;15.57;;;4.55;;
47531;SDS011;33273;52.254;7.988;2023-04-25T05:21:44;16.30;;;4.72;;
47531;SDS011;33273;52.254;7.988;2023-04-25T05:24:30;17.45;;;4.88;;
47531;SDS011;33273;52.254;7.988;2023-04-25T05:27:19;17.70;;;5.20;;
47531;SDS011;33273;52.254;7.988;2023-04-25T05:30:08;15.63;;;4.82;;
47531;SDS011;33273;52.254;7.988;2023-04-25T05:32:54;13.55;;;5.28;;
47531;SDS011;33273;52.254;7.988;2023-04-25T05:35:20;10.48;;;3.75;;
47531;SDS011;33273;52.254;7.988;2023-04-25T05:37:47;17.85;;;5.20;;
47531;SDS011;33273;52.254;7.988;2023-04-25T05:42:44;13.38;;;4.80;;
47531;SDS011;33273;52.254;7.988;2023-04-25T05:45:19;19.65;;;5.18;;
47531;SDS011;33273;52.254;7.988;2023-04-25T05:48:13;14.40;;;4.32;;
47531;SDS011;33273;52.254;7.988;2023-04-25T05:50:58;9.43;;;3.58;;
47531;SDS011;33273;52.254;7.988;2023-04-25T05:54:00;14.95;;;3.90;;
47531;SDS011;33273;52.254;7.988;2023-04-25T05:56:27;16.20;;;4.75;;
47531;SDS011;33273;52.254;7.988;2023-04-25T05:58:53;13.65;;;4.30;;
47531;SDS011;33273;52.254;7.988;2023-04-25T06:01:19;13.93;;;3.58;;
47531;SDS011;33273;52.254;7.988;2023-04-25T06:03:46;14.23;;;4.28;;
47531;SDS011;33273;52.254;7.988;2023-04-25T06:06:12;9.85;;;3.55;;
47531;SDS011;33273;52.254;7.988;2023-04-25T06:08:38;17.67;;;3.87;;
47531;SDS011;33273;52.254;7.988;2023-04-25T06:11:05;23.98;;;4.15;;
47531;SDS011;33273;52.254;7.988;2023-04-25T06:13:31;17.63;;;4.95;;
47531;SDS011;33273;52.254;7.988;2023-04-25T06:15:57;10.43;;;3.75;;
47531;SDS011;33273;52.254;7.988;2023-04-25T06:18:24;9.60;;;3.88;;
47531;SDS011;33273;52.254;7.988;2023-04-25T06:20:52;10.52;;;3.60;;
47531;SDS011;33273;52.254;7.988;2023-04-25T06:23:18;10.40;;;3.70;;
47531;SDS011;33273;52.254;7.988;2023-04-25T06:25:51;9.48;;;3.42;;
47531;SDS011;33273;52.254;7.988;2023-04-25T06:28:17;14.52;;;4.03;;
47531;SDS011;33273;52.254;7.988;2023-04-25T06:33:16;14.93;;;3.55;;
47531;SDS011;33273;52.254;7.988;2023-04-25T06:35:42;10.60;;;3.38;;
47531;SDS011;33273;52.254;7.988;2023-04-25T06:38:11;13.23;;;3.88;;
47531;SDS011;33273;52.254;7.988;2023-04-25T06:45:54;17.17;;;4.10;;
47531;SDS011;33273;52.254;7.988;2023-04-25T06:48:22;8.70;;;3.40;;
47531;SDS011;33273;52.254;7.988;2023-04-25T06:50:48;11.88;;;2.97;;
47531;SDS011;33273;52.254;7.988;2023-04-25T06:53:14;11.20;;;2.78;;
47531;SDS011;33273;52.254;7.988;2023-04-25T06:55:43;12.57;;;4.03;;
47531;SDS011;33273;52.254;7.988;2023-04-25T06:58:19;10.77;;;2.90;;
47531;SDS011;33273;52.254;7.988;2023-04-25T07:01:12;10.02;;;2.83;;
47531;SDS011;33273;52.254;7.988;2023-04-25T07:03:38;12.35;;;3.53;;
47531;SDS011;33273;52.254;7.988;2023-04-25T07:06:14;17.25;;;3.28;;
47531;SDS011;33273;52.254;7.988;2023-04-25T07:08:40;10.00;;;2.85;;
47531;SDS011;33273;52.254;7.988;2023-04-25T07:11:06;18.67;;;3.20;;
47531;SDS011;33273;52.254;7.988;2023-04-25T07:13:32;11.77;;;3.63;;
47531;SDS011;33273;52.254;7.988;2023-04-25T07:15:58;15.93;;;2.60;;
47531;SDS011;33273;52.254;7.988;2023-04-25T07:18:27;7.97;;;3.10;;
47531;SDS011;33273;52.254;7.988;2023-04-25T07:20:53;8.23;;;2.65;;
47531;SDS011;33273;52.254;7.988;2023-04-25T07:23:20;11.25;;;2.65;;
47531;SDS011;33273;52.254;7.988;2023-04-25T07:25:46;11.85;;;2.72;;
47531;SDS011;33273;52.254;7.988;2023-04-25T07:28:16;12.18;;;3.55;;
47531;SDS011;33273;52.254;7.988;2023-04-25T07:30:43;14.70;;;2.63;;
47531;SDS011;33273;52.254;7.988;2023-04-25T07:33:09;11.70;;;2.97;;
47531;SDS011;33273;52.254;7.988;2023-04-25T07:35:35;10.27;;;4.10;;
47531;SDS011;33273;52.254;7.988;2023-04-25T07:38:01;9.43;;;2.90;;
47531;SDS011;33273;52.254;7.988;2023-04-25T07:40:28;10.40;;;2.75;;
47531;SDS011;33273;52.254;7.988;2023-04-25T07:43:00;19.95;;;3.72;;
47531;SDS011;33273;52.254;7.988;2023-04-25T07:45:33;15.23;;;2.47;;
47531;SDS011;33273;52.254;7.988;2023-04-25T07:48:00;9.75;;;3.08;;
47531;SDS011;33273;52.254;7.988;2023-04-25T07:50:29;9.65;;;2.53;;
47531;SDS011;33273;52.254;7.988;2023-04-25T07:52:56;17.65;;;3.42;;
47531;SDS011;33273;52.254;7.988;2023-04-25T07:55:28;7.40;;;3.05;;
47531;SDS011;33273;52.254;7.988;2023-04-25T07:58:08;13.82;;;2.70;;
47531;SDS011;33273;52.254;7.988;2023-04-25T08:00:37;8.30;;;2.90;;
47531;SDS011;33273;52.254;7.988;2023-04-25T08:03:39;8.55;;;2.80;;
47531;SDS011;33273;52.254;7.988;2023-04-25T08:06:12;10.02;;;2.40;;
47531;SDS011;33273;52.254;7.988;2023-04-25T08:08:56;10.60;;;2.80;;
47531;SDS011;33273;52.254;7.988;2023-04-25T08:11:29;6.80;;;2.25;;
47531;SDS011;33273;52.254;7.988;2023-04-25T08:13:55;10.45;;;2.45;;
47531;SDS011;33273;52.254;7.988;2023-04-25T08:16:21;11.02;;;2.42;;
47531;SDS011;33273;52.254;7.988;2023-04-25T08:18:47;10.32;;;2.45;;
47531;SDS011;33273;52.254;7.988;2023-04-25T08:21:13;7.65;;;2.35;;
47531;SDS011;33273;52.254;7.988;2023-04-25T08:23:40;5.40;;;1.80;;
47531;SDS011;33273;52.254;7.988;2023-04-25T08:26:13;6.88;;;2.38;;
47531;SDS011;33273;52.254;7.988;2023-04-25T08:28:41;6.10;;;2.22;;
47531;SDS011;33273;52.254;7.988;2023-04-25T08:31:07;6.60;;;1.93;;
47531;SDS011;33273;52.254;7.988;2023-04-25T08:33:43;7.47;;;2.10;;
47531;SDS011;33273;52.254;7.988;2023-04-25T08:36:20;8.32;;;2.42;;
47531;SDS011;33273;52.254;7.988;2023-04-25T08:38:47;7.55;;;1.85;;
47531;SDS011;33273;52.254;7.988;2023-04-25T08:41:17;12.45;;;3.13;;
47531;SDS011;33273;52.254;7.988;2023-04-25T08:43:45;5.68;;;1.80;;
47531;SDS011;33273;52.254;7.988;2023-04-25T08:46:14;13.15;;;2.22;;
47531;SDS011;33273;52.254;7.988;2023-04-25T08:48:55;8.00;;;2.08;;
47531;SDS011;33273;52.254;7.988;2023-04-25T08:51:25;5.45;;;2.03;;
47531;SDS011;33273;52.254;7.988;2023-04-25T08:54:08;8.77;;;2.47;;
47531;SDS011;33273;52.254;7.988;2023-04-25T08:56:43;20.73;;;2.47;;
47531;SDS011;33273;52.254;7.988;2023-04-25T08:59:11;5.47;;;2.35;;
47531;SDS011;33273;52.254;7.988;2023-04-25T09:01:38;4.07;;;1.92;;
47531;SDS011;33273;52.254;7.988;2023-04-25T09:04:05;14.70;;;2.08;;
47531;SDS011;33273;52.254;7.988;2023-04-25T09:06:32;7.75;;;2.25;;
47531;SDS011;33273;52.254;7.988;2023-04-25T09:09:05;7.07;;;1.65;;
47531;SDS011;33273;52.254;7.988;2023-04-25T09:11:32;8.90;;;2.25;;
47531;SDS011;33273;52.254;7.988;2023-04-25T09:14:13;6.15;;;1.92;;
47531;SDS011;33273;52.254;7.988;2023-04-25T09:17:05;6.63;;;2.53;;
47531;SDS011;33273;52.254;7.988;2023-04-25T09:20:14;11.65;;;2.35;;
47531;SDS011;33273;52.254;7.988;2023-04-25T09:22:40;7.85;;;2.05;;
47531;SDS011;33273;52.254;7.988;2023-04-25T09:25:11;5.57;;;1.52;;
47531;SDS011;33273;52.254;7.988;2023-04-25T09:27:50;6.85;;;1.50;;
47531;SDS011;33273;52.254;7.988;2023-04-25T09:30:31;7.78;;;2.00;;
47531;SDS011;33273;52.254;7.988;2023-04-25T09:33:21;6.25;;;2.33;;
47531;SDS011;33273;52.254;7.988;2023-04-25T09:36:03;4.45;;;1.75;;
47531;SDS011;33273;52.254;7.988;2023-04-25T09:38:54;7.10;;;2.88;;
47531;SDS011;33273;52.254;7.988;2023-04-25T09:41:42;7.45;;;2.30;;
47531;SDS011;33273;52.254;7.988;2023-04-25T09:44:08;8.43;;;3.17;;
47531;SDS011;33273;52.254;7.988;2023-04-25T09:46:40;8.15;;;2.00;;
47531;SDS011;33273;52.254;7.988;2023-04-25T09:49:19;3.92;;;1.55;;
47531;SDS011;33273;52.254;7.988;2023-04-25T09:52:06;7.70;;;2.53;;
47531;SDS011;33273;52.254;7.988;2023-04-25T09:54:41;7.82;;;2.10;;
47531;SDS011;33273;52.254;7.988;2023-04-25T09:57:21;4.88;;;1.77;;
47531;SDS011;33273;52.254;7.988;2023-04-25T09:59:49;6.32;;;1.63;;
47531;SDS011;33273;52.254;7.988;2023-04-25T10:02:20;5.20;;;1.92;;
47531;SDS011;33273;52.254;7.988;2023-04-25T10:04:53;6.75;;;3.05;;
47531;SDS011;33273;52.254;7.988;2023-04-25T10:07:25;10.20;;;2.20;;
47531;SDS011;33273;52.254;7.988;2023-04-25T10:09:55;10.43;;;2.20;;
47531;SDS011;33273;52.254;7.988;2023-04-25T10:12:26;6.40;;;1.98;;
47531;SDS011;33273;52.254;7.988;2023-04-25T10:14:52;5.65;;;2.40;;
47531;SDS011;33273;52.254;7.988;2023-04-25T10:17:20;5.78;;;2.03;;
47531;SDS011;33273;52.254;7.988;2023-04-25T10:19:49;8.70;;;2.15;;
47531;SDS011;33273;52.254;7.988;2023-04-25T10:22:23;7.15;;;2.10;;
47531;SDS011;33273;52.254;7.988;2023-04-25T10:24:56;7.40;;;2.15;;
47531;SDS011;33273;52.254;7.988;2023-04-25T10:27:22;4.18;;;2.33;;
47531;SDS011;33273;52.254;7.988;2023-04-25T10:30:04;5.22;;;1.70;;
47531;SDS011;33273;52.254;7.988;2023-04-25T10:32:37;4.88;;;1.70;;
47531;SDS011;33273;52.254;7.988;2023-04-25T10:37:55;6.93;;;2.08;;
47531;SDS011;33273;52.254;7.988;2023-04-25T10:40:25;7.97;;;1.75;;
47531;SDS011;33273;52.254;7.988;2023-04-25T10:42:52;7.68;;;1.60;;
47531;SDS011;33273;52.254;7.988;2023-04-25T10:45:21;4.78;;;1.63;;
47531;SDS011;33273;52.254;7.988;2023-04-25T10:47:47;10.48;;;2.42;;
47531;SDS011;33273;52.254;7.988;2023-04-25T10:50:16;8.10;;;2.30;;
47531;SDS011;33273;52.254;7.988;2023-04-25T10:52:43;7.40;;;2.63;;
47531;SDS011;33273;52.254;7.988;2023-04-25T10:55:11;8.00;;;1.90;;
47531;SDS011;33273;52.254;7.988;2023-04-25T11:00:19;8.73;;;2.00;;
47531;SDS011;33273;52.254;7.988;2023-04-25T11:02:51;3.92;;;1.50;;
47531;SDS011;33273;52.254;7.988;2023-04-25T11:05:32;6.18;;;1.98;;
47531;SDS011;33273;52.254;7.988;2023-04-25T11:08:00;7.90;;;2.38;;
47531;SDS011;33273;52.254;7.988;2023-04-25T11:10:30;8.80;;;2.20;;
47531;SDS011;33273;52.254;7.988;2023-04-25T11:13:00;8.45;;;1.98;;
47531;SDS011;33273;52.254;7.988;2023-04-25T11:15:27;7.10;;;1.95;;
47531;SDS011;33273;52.254;7.988;2023-04-25T11:17:54;5.55;;;1.60;;
47531;SDS011;33273;52.254;7.988;2023-04-25T11:20:21;9.60;;;2.13;;
47531;SDS011;33273;52.254;7.988;2023-04-25T11:22:51;8.40;;;2.22;;
47531;SDS011;33273;52.254;7.988;2023-04-25T11:25:17;6.90;;;1.88;;
47531;SDS011;33273;52.254;7.988;2023-04-25T11:27:49;8.10;;;1.80;;
47531;SDS011;33273;52.254;7.988;2023-04-25T11:30:23;6.18;;;2.00;;
47531;SDS011;33273;52.254;7.988;2023-04-25T11:32:50;4.68;;;1.70;;
47531;SDS011;33273;52.254;7.988;2023-04-25T11:35:17;6.53;;;1.80;;
47531;SDS011;33273;52.254;7.988;2023-04-25T11:37:48;4.35;;;1.60;;
47531;SDS011;33273;52.254;7.988;2023-04-25T11:40:16;6.55;;;2.00;;
47531;SDS011;33273;52.254;7.988;2023-04-25T11:42:46;4.82;;;1.63;;
47531;SDS011;33273;52.254;7.988;2023-04-25T11:45:12;5.20;;;1.55;;
47531;SDS011;33273;52.254;7.988;2023-04-25T11:47:39;5.75;;;1.75;;
47531;SDS011;33273;52.254;7.988;2023-04-25T11:50:06;8.63;;;2.10;;
47531;SDS011;33273;52.254;7.988;2023-04-25T11:52:40;5.30;;;1.63;;
47531;SDS011;33273;52.254;7.988;2023-04-25T11:55:13;4.18;;;1.85;;
47531;SDS011;33273;52.254;7.988;2023-04-25T11:57:41;9.52;;;2.33;;
47531;SDS011;33273;52.254;7.988;2023-04-25T12:00:09;7.00;;;1.70;;
47531;SDS011;33273;52.254;7.988;2023-04-25T12:02:40;6.43;;;1.83;;
47531;SDS011;33273;52.254;7.988;2023-04-25T12:05:07;4.57;;;1.52;;
47531;SDS011;33273;52.254;7.988;2023-04-25T12:07:34;4.40;;;1.55;;
47531;SDS011;33273;52.254;7.988;2023-04-25T12:10:04;4.85;;;1.42;;
47531;SDS011;33273;52.254;7.988;2023-04-25T12:12:35;4.88;;;1.30;;
47531;SDS011;33273;52.254;7.988;2023-04-25T12:15:35;3.30;;;1.38;;
47531;SDS011;33273;52.254;7.988;2023-04-25T12:17:54;2.83;;;1.15;;
47531;SDS011;33273;52.254;7.988;2023-04-25T12:20:21;5.32;;;1.95;;
47531;SDS011;33273;52.254;7.988;2023-04-25T12:22:51;4.75;;;1.42;;
47531;SDS011;33273;52.254;7.988;2023-04-25T12:25:33;4.68;;;1.42;;
47531;SDS011;33273;52.254;7.988;2023-04-25T12:33:24;6.15;;;1.60;;
47531;SDS011;33273;52.254;7.988;2023-04-25T12:35:51;5.18;;;1.50;;
47531;SDS011;33273;52.254;7.988;2023-04-25T12:38:21;2.92;;;1.38;;
47531;SDS011;33273;52.254;7.988;2023-04-25T12:40:47;2.10;;;1.15;;
47531;SDS011;33273;52.254;7.988;2023-04-25T12:43:14;3.35;;;1.67;;
47531;SDS011;33273;52.254;7.988;2023-04-25T12:45:40;3.00;;;1.27;;
47531;SDS011;33273;52.254;7.988;2023-04-25T12:48:06;3.10;;;1.90;;
47531;SDS011;33273;52.254;7.988;2023-04-25T12:50:32;3.77;;;1.50;;
47531;SDS011;33273;52.254;7.988;2023-04-25T12:52:58;5.90;;;1.40;;
47531;SDS011;33273;52.254;7.988;2023-04-25T12:55:24;3.60;;;1.30;;
47531;SDS011;33273;52.254;7.988;2023-04-25T12:57:50;3.93;;;2.10;;
47531;SDS011;33273;52.254;7.988;2023-04-25T13:00:16;4.35;;;1.30;;
47531;SDS011;33273;52.254;7.988;2023-04-25T13:02:45;5.63;;;1.50;;
47531;SDS011;33273;52.254;7.988;2023-04-25T13:05:12;3.25;;;1.38;;
47531;SDS011;33273;52.254;7.988;2023-04-25T13:07:38;5.93;;;1.50;;
47531;SDS011;33273;52.254;7.988;2023-04-25T13:10:05;7.17;;;2.00;;
47531;SDS011;33273;52.254;7.988;2023-04-25T13:12:31;3.08;;;1.40;;
47531;SDS011;33273;52.254;7.988;2023-04-25T13:14:57;6.53;;;1.60;;
47531;SDS011;33273;52.254;7.988;2023-04-25T13:17:25;4.28;;;1.25;;
47531;SDS011;33273;52.254;7.988;2023-04-25T13:19:52;4.63;;;1.63;;
47531;SDS011;33273;52.254;7.988;2023-04-25T13:22:17;5.27;;;1.53;;
47531;SDS011;33273;52.254;7.988;2023-04-25T13:24:45;4.65;;;1.77;;
47531;SDS011;33273;52.254;7.988;2023-04-25T13:27:12;4.30;;;1.50;;
47531;SDS011;33273;52.254;7.988;2023-04-25T13:29:38;3.10;;;1.00;;
47531;SDS011;33273;52.254;7.988;2023-04-25T13:32:06;3.78;;;1.20;;
47531;SDS011;33273;52.254;7.988;2023-04-25T13:34:32;4.00;;;1.60;;
47531;SDS011;33273;52.254;7.988;2023-04-25T13:36:59;3.15;;;1.30;;
47531;SDS011;33273;52.254;7.988;2023-04-25T13:39:25;7.82;;;1.63;;
47531;SDS011;33273;52.254;7.988;2023-04-25T13:41:51;4.85;;;1.45;;
47531;SDS011;33273;52.254;7.988;2023-04-25T13:44:17;4.93;;;1.47;;
47531;SDS011;33273;52.254;7.988;2023-04-25T13:46:43;3.50;;;1.53;;
47531;SDS011;33273;52.254;7.988;2023-04-25T13:49:09;4.72;;;1.20;;
47531;SDS011;33273;52.254;7.988;2023-04-25T13:51:35;6.15;;;2.65;;
47531;SDS011;33273;52.254;7.988;2023-04-25T13:54:01;3.80;;;1.30;;
47531;SDS011;33273;52.254;7.988;2023-04-25T13:56:28;6.70;;;2.35;;
47531;SDS011;33273;52.254;7.988;2023-04-25T13:58:55;7.38;;;1.75;;
47531;SDS011;33273;52.254;7.988;2023-04-25T14:01:23;3.90;;;1.58;;
47531;SDS011;33273;52.254;7.988;2023-04-25T14:03:50;5.53;;;1.35;;
47531;SDS011;33273;52.254;7.988;2023-04-25T14:06:16;3.43;;;1.63;;
47531;SDS011;33273;52.254;7.988;2023-04-25T14:08:49;3.25;;;1.33;;
47531;SDS011;33273;52.254;7.988;2023-04-25T14:11:15;2.42;;;1.52;;
47531;SDS011;33273;52.254;7.988;2023-04-25T14:13:44;3.90;;;1.50;;
47531;SDS011;33273;52.254;7.988;2023-04-25T14:16:12;3.47;;;1.30;;
47531;SDS011;33273;52.254;7.988;2023-04-25T14:18:38;4.07;;;1.40;;
47531;SDS011;33273;52.254;7.988;2023-04-25T14:21:04;6.63;;;1.50;;
47531;SDS011;33273;52.254;7.988;2023-04-25T14:23:32;4.68;;;1.60;;
47531;SDS011;33273;52.254;7.988;2023-04-25T14:25:58;6.53;;;1.98;;
47531;SDS011;33273;52.254;7.988;2023-04-25T14:28:24;3.85;;;1.50;;
47531;SDS011;33273;52.254;7.988;2023-04-25T14:30:50;6.87;;;1.70;;
47531;SDS011;33273;52.254;7.988;2023-04-25T14:33:17;3.13;;;1.38;;
47531;SDS011;33273;52.254;7.988;2023-04-25T14:35:43;4.70;;;1.67;;
47531;SDS011;33273;52.254;7.988;2023-04-25T14:38:12;7.75;;;1.55;;
47531;SDS011;33273;52.254;7.988;2023-04-25T14:40:39;5.75;;;1.95;;
47531;SDS011;33273;52.254;7.988;2023-04-25T14:43:05;1.97;;;1.10;;
47531;SDS011;33273;52.254;7.988;2023-04-25T14:45:31;3.70;;;2.00;;
47531;SDS011;33273;52.254;7.988;2023-04-25T14:47:58;4.07;;;1.52;;
47531;SDS011;33273;52.254;7.988;2023-04-25T14:50:25;4.55;;;1.48;;
47531;SDS011;33273;52.254;7.988;2023-04-25T14:52:51;4.10;;;1.40;;
47531;SDS011;33273;52.254;7.988;2023-04-25T14:55:17;7.22;;;2.53;;
47531;SDS011;33273;52.254;7.988;2023-04-25T14:57:43;5.05;;;1.67;;
47531;SDS011;33273;52.254;7.988;2023-04-25T15:00:09;6.53;;;2.13;;
47531;SDS011;33273;52.254;7.988;2023-04-25T15:02:38;4.22;;;1.90;;
47531;SDS011;33273;52.254;7.988;2023-04-25T15:05:04;4.28;;;1.98;;
47531;SDS011;33273;52.254;7.988;2023-04-25T15:07:31;2.28;;;1.40;;
47531;SDS011;33273;52.254;7.988;2023-04-25T15:09:57;7.40;;;1.75;;
47531;SDS011;33273;52.254;7.988;2023-04-25T15:12:23;5.97;;;1.90;;
47531;SDS011;33273;52.254;7.988;2023-04-25T15:14:52;5.28;;;1.80;;
47531;SDS011;33273;52.254;7.988;2023-04-25T15:17:19;4.25;;;1.30;;
47531;SDS011;33273;52.254;7.988;2023-04-25T15:19:45;5.90;;;2.00;;
47531;SDS011;33273;52.254;7.988;2023-04-25T15:22:11;2.97;;;1.45;;
47531;SDS011;33273;52.254;7.988;2023-04-25T15:24:37;2.27;;;1.40;;
47531;SDS011;33273;52.254;7.988;2023-04-25T15:27:09;3.50;;;1.73;;